sensor_id;sensor_type;location;lat;lon;timestamp;P1;durP1;ratioP1;P2;durP2;ratioP2
44850;SDS011;30583;48.714;9.386;2023-04-25T00:02:24;3.40;;;1.80;;
44850;SDS011;30583;48.714;9.386;2023-04-25T00:04:50;3.63;;;1.92;;
44850;SDS011;30583;48.714;9.386;2023-04-25T00:07:16;3.47;;;2.08;;
44850;SDS011;30583;48.714;9.386;2023-04-25T00:09:42;3.70;;;2.17;;
44850;SDS011;30583;48.714;9.386;2023-04-25T00:12:08;3.45;;;2.20;;
44850;SDS011;30583;48.714;9.386;2023-04-25T00:14:34;4.05;;;2.10;;
44850;SDS011;30583;48.714;9.386;2023-04-25T00:17:00;4.20;;;1.92;;
44850;SDS011;30583;48.714;9.386;2023-04-25T00:19:26;4.55;;;2.00;;
44850;SDS011;30583;48.714;9.386;2023-04-25T00:21:53;5.00;;;2.25;;
44850;SDS011;30583;48.714;9.386;2023-04-25T00:24:22;3.90;;;2.30;;
44850;SDS011;30583;48.714;9.386;2023-04-25T00:26:48;5.57;;;2.22;;
44850;SDS011;30583;48.714;9.386;2023-04-25T00:29:13;4.03;;;2.35;;
44850;SDS011;30583;48.714;9.386;2023-04-25T00:31:39;4.57;;;2.30;;
44850;SDS011;30583;48.714;9.386;2023-04-25T00:34:06;5.28;;;2.30;;
44850;SDS011;30583;48.714;9.386;2023-04-25T00:36:33;2.90;;;2.10;;
44850;SDS011;30583;48.714;9.386;2023-04-25T00:38:58;3.53;;;2.15;;
44850;SDS011;30583;48.714;9.386;2023-04-25T00:41:25;4.80;;;3.10;;
44850;SDS011;30583;48.714;9.386;2023-04-25T00:43:51;5.45;;;2.50;;
44850;SDS011;30583;48.714;9.386;2023-04-25T00:46:18;4.90;;;2.63;;
44850;SDS011;30583;48.714;9.386;2023-04-25T00:48:44;4.40;;;2.50;;
44850;SDS011;30583;48.714;9.386;2023-04-25T00:51:10;4.50;;;2.65;;
44850;SDS011;30583;48.714;9.386;2023-04-25T00:53:41;5.50;;;2.92;;
44850;SDS011;30583;48.714;9.386;2023-04-25T00:56:07;6.40;;;2.92;;
44850;SDS011;30583;48.714;9.386;2023-04-25T00:58:32;5.38;;;3.13;;
44850;SDS011;30583;48.714;9.386;2023-04-25T01:00:58;5.03;;;2.80;;
44850;SDS011;30583;48.714;9.386;2023-04-25T01:03:25;4.28;;;2.88;;
44850;SDS011;30583;48.714;9.386;2023-04-25T01:05:53;4.07;;;2.45;;
44850;SDS011;30583;48.714;9.386;2023-04-25T01:08:19;5.32;;;2.85;;
44850;SDS011;30583;48.714;9.386;2023-04-25T01:10:46;3.00;;;2.33;;
44850;SDS011;30583;48.714;9.386;2023-04-25T01:13:12;4.75;;;2.90;;
44850;SDS011;30583;48.714;9.386;2023-04-25T01:15:38;4.28;;;2.65;;
44850;SDS011;30583;48.714;9.386;2023-04-25T01:18:04;6.15;;;3.00;;
44850;SDS011;30583;48.714;9.386;2023-04-25T01:20:30;6.22;;;3.22;;
44850;SDS011;30583;48.714;9.386;2023-04-25T01:22:57;4.13;;;2.70;;
44850;SDS011;30583;48.714;9.386;2023-04-25T01:25:23;5.72;;;2.70;;
44850;SDS011;30583;48.714;9.386;2023-04-25T01:27:49;6.00;;;2.47;;
44850;SDS011;30583;48.714;9.386;2023-04-25T01:30:15;5.93;;;3.40;;
44850;SDS011;30583;48.714;9.386;2023-04-25T01:32:41;3.63;;;2.53;;
44850;SDS011;30583;48.714;9.386;2023-04-25T01:35:08;4.65;;;3.03;;
44850;SDS011;30583;48.714;9.386;2023-04-25T01:37:44;4.88;;;2.78;;
44850;SDS011;30583;48.714;9.386;2023-04-25T01:40:10;5.15;;;2.97;;
44850;SDS011;30583;48.714;9.386;2023-04-25T01:42:39;6.50;;;3.00;;
44850;SDS011;30583;48.714;9.386;2023-04-25T01:45:06;6.38;;;2.92;;
44850;SDS011;30583;48.714;9.386;2023-04-25T01:47:33;7.38;;;3.45;;
44850;SDS011;30583;48.714;9.386;2023-04-25T01:50:00;6.35;;;3.30;;
44850;SDS011;30583;48.714;9.386;2023-04-25T01:52:27;6.25;;;3.05;;
44850;SDS011;30583;48.714;9.386;2023-04-25T01:54:52;5.93;;;2.80;;
44850;SDS011;30583;48.714;9.386;2023-04-25T01:57:19;4.07;;;2.85;;
44850;SDS011;30583;48.714;9.386;2023-04-25T01:59:44;5.07;;;2.83;;
44850;SDS011;30583;48.714;9.386;2023-04-25T02:02:11;5.35;;;3.45;;
44850;SDS011;30583;48.714;9.386;2023-04-25T02:04:36;4.47;;;3.05;;
44850;SDS011;30583;48.714;9.386;2023-04-25T02:07:03;5.65;;;3.20;;
44850;SDS011;30583;48.714;9.386;2023-04-25T02:09:29;6.05;;;3.22;;
44850;SDS011;30583;48.714;9.386;2023-04-25T02:11:54;5.25;;;3.00;;
44850;SDS011;30583;48.714;9.386;2023-04-25T02:14:20;4.72;;;3.10;;
44850;SDS011;30583;48.714;9.386;2023-04-25T02:16:46;5.68;;;2.60;;
44850;SDS011;30583;48.714;9.386;2023-04-25T02:19:12;5.50;;;3.13;;
44850;SDS011;30583;48.714;9.386;2023-04-25T02:21:37;3.80;;;2.60;;
44850;SDS011;30583;48.714;9.386;2023-04-25T02:24:03;5.38;;;3.08;;
44850;SDS011;30583;48.714;9.386;2023-04-25T02:26:29;4.90;;;2.72;;
44850;SDS011;30583;48.714;9.386;2023-04-25T02:28:56;4.13;;;2.63;;
44850;SDS011;30583;48.714;9.386;2023-04-25T02:31:22;4.88;;;2.90;;
44850;SDS011;30583;48.714;9.386;2023-04-25T02:33:48;6.20;;;2.72;;
44850;SDS011;30583;48.714;9.386;2023-04-25T02:36:13;5.93;;;2.78;;
44850;SDS011;30583;48.714;9.386;2023-04-25T02:38:40;3.83;;;2.38;;
44850;SDS011;30583;48.714;9.386;2023-04-25T02:41:05;4.35;;;2.53;;
44850;SDS011;30583;48.714;9.386;2023-04-25T02:43:31;4.53;;;2.55;;
44850;SDS011;30583;48.714;9.386;2023-04-25T02:45:57;3.58;;;2.30;;
44850;SDS011;30583;48.714;9.386;2023-04-25T02:48:22;4.32;;;2.50;;
44850;SDS011;30583;48.714;9.386;2023-04-25T02:50:48;4.97;;;2.75;;
44850;SDS011;30583;48.714;9.386;2023-04-25T02:53:13;4.43;;;2.63;;
44850;SDS011;30583;48.714;9.386;2023-04-25T02:55:39;3.75;;;2.20;;
44850;SDS011;30583;48.714;9.386;2023-04-25T02:58:05;5.82;;;2.20;;
44850;SDS011;30583;48.714;9.386;2023-04-25T03:00:30;4.45;;;2.53;;
44850;SDS011;30583;48.714;9.386;2023-04-25T03:02:56;4.25;;;2.30;;
44850;SDS011;30583;48.714;9.386;2023-04-25T03:05:22;3.40;;;2.40;;
44850;SDS011;30583;48.714;9.386;2023-04-25T03:07:47;5.13;;;2.72;;
44850;SDS011;30583;48.714;9.386;2023-04-25T03:10:13;4.25;;;2.75;;
44850;SDS011;30583;48.714;9.386;2023-04-25T03:12:39;5.15;;;2.50;;
44850;SDS011;30583;48.714;9.386;2023-04-25T03:15:04;5.68;;;2.63;;
44850;SDS011;30583;48.714;9.386;2023-04-25T03:17:30;4.35;;;2.40;;
44850;SDS011;30583;48.714;9.386;2023-04-25T03:19:56;5.38;;;2.75;;
44850;SDS011;30583;48.714;9.386;2023-04-25T03:22:22;4.60;;;2.78;;
44850;SDS011;30583;48.714;9.386;2023-04-25T03:24:49;5.93;;;2.90;;
44850;SDS011;30583;48.714;9.386;2023-04-25T03:27:15;5.90;;;2.63;;
44850;SDS011;30583;48.714;9.386;2023-04-25T03:29:41;4.13;;;2.70;;
44850;SDS011;30583;48.714;9.386;2023-04-25T03:32:06;4.32;;;2.53;;
44850;SDS011;30583;48.714;9.386;2023-04-25T03:34:32;4.10;;;2.70;;
44850;SDS011;30583;48.714;9.386;2023-04-25T03:36:57;3.92;;;2.75;;
44850;SDS011;30583;48.714;9.386;2023-04-25T03:39:23;4.57;;;2.78;;
44850;SDS011;30583;48.714;9.386;2023-04-25T03:41:49;5.60;;;2.80;;
44850;SDS011;30583;48.714;9.386;2023-04-25T03:44:15;4.35;;;2.95;;
44850;SDS011;30583;48.714;9.386;2023-04-25T03:46:40;5.25;;;2.70;;
44850;SDS011;30583;48.714;9.386;2023-04-25T03:49:06;4.45;;;2.60;;
44850;SDS011;30583;48.714;9.386;2023-04-25T03:51:31;6.53;;;3.05;;
44850;SDS011;30583;48.714;9.386;2023-04-25T03:53:57;6.25;;;2.53;;
44850;SDS011;30583;48.714;9.386;2023-04-25T03:56:23;6.15;;;2.67;;
44850;SDS011;30583;48.714;9.386;2023-04-25T03:58:48;6.40;;;3.28;;
44850;SDS011;30583;48.714;9.386;2023-04-25T04:01:14;5.40;;;2.75;;
44850;SDS011;30583;48.714;9.386;2023-04-25T04:03:39;5.47;;;3.00;;
44850;SDS011;30583;48.714;9.386;2023-04-25T04:06:05;7.38;;;3.67;;
44850;SDS011;30583;48.714;9.386;2023-04-25T04:08:32;4.50;;;2.60;;
44850;SDS011;30583;48.714;9.386;2023-04-25T04:10:58;5.20;;;3.20;;
44850;SDS011;30583;48.714;9.386;2023-04-25T04:13:25;5.35;;;2.55;;
44850;SDS011;30583;48.714;9.386;2023-04-25T04:15:52;8.07;;;2.92;;
44850;SDS011;30583;48.714;9.386;2023-04-25T04:18:18;4.57;;;2.85;;
44850;SDS011;30583;48.714;9.386;2023-04-25T04:20:43;4.00;;;3.00;;
44850;SDS011;30583;48.714;9.386;2023-04-25T04:23:09;6.05;;;4.32;;
44850;SDS011;30583;48.714;9.386;2023-04-25T04:25:35;4.57;;;3.00;;
44850;SDS011;30583;48.714;9.386;2023-04-25T04:28:01;6.18;;;2.88;;
44850;SDS011;30583;48.714;9.386;2023-04-25T04:30:27;7.35;;;3.33;;
44850;SDS011;30583;48.714;9.386;2023-04-25T04:32:56;6.07;;;2.83;;
44850;SDS011;30583;48.714;9.386;2023-04-25T04:35:22;4.47;;;2.25;;
44850;SDS011;30583;48.714;9.386;2023-04-25T04:37:48;3.63;;;2.28;;
44850;SDS011;30583;48.714;9.386;2023-04-25T04:40:14;4.25;;;2.60;;
44850;SDS011;30583;48.714;9.386;2023-04-25T04:42:41;4.88;;;2.50;;
44850;SDS011;30583;48.714;9.386;2023-04-25T04:45:08;4.15;;;2.65;;
44850;SDS011;30583;48.714;9.386;2023-04-25T04:47:35;4.47;;;2.70;;
44850;SDS011;30583;48.714;9.386;2023-04-25T04:50:01;6.70;;;3.00;;
44850;SDS011;30583;48.714;9.386;2023-04-25T04:52:28;4.90;;;2.72;;
44850;SDS011;30583;48.714;9.386;2023-04-25T04:54:53;5.55;;;2.42;;
44850;SDS011;30583;48.714;9.386;2023-04-25T04:57:19;3.97;;;2.30;;
44850;SDS011;30583;48.714;9.386;2023-04-25T04:59:44;5.75;;;2.47;;
44850;SDS011;30583;48.714;9.386;2023-04-25T05:02:10;4.03;;;2.45;;
44850;SDS011;30583;48.714;9.386;2023-04-25T05:04:36;5.90;;;2.25;;
44850;SDS011;30583;48.714;9.386;2023-04-25T05:07:01;5.90;;;2.22;;
44850;SDS011;30583;48.714;9.386;2023-04-25T05:09:27;4.60;;;2.60;;
44850;SDS011;30583;48.714;9.386;2023-04-25T05:11:53;5.10;;;2.42;;
44850;SDS011;30583;48.714;9.386;2023-04-25T05:14:18;4.32;;;3.08;;
44850;SDS011;30583;48.714;9.386;2023-04-25T05:16:44;4.88;;;3.15;;
44850;SDS011;30583;48.714;9.386;2023-04-25T05:19:10;7.97;;;3.05;;
44850;SDS011;30583;48.714;9.386;2023-04-25T05:21:35;17.25;;;3.60;;
44850;SDS011;30583;48.714;9.386;2023-04-25T05:24:01;6.13;;;3.15;;
44850;SDS011;30583;48.714;9.386;2023-04-25T05:26:27;5.45;;;3.00;;
44850;SDS011;30583;48.714;9.386;2023-04-25T05:28:56;4.45;;;2.65;;
44850;SDS011;30583;48.714;9.386;2023-04-25T05:31:22;7.57;;;2.40;;
44850;SDS011;30583;48.714;9.386;2023-04-25T05:33:47;5.70;;;2.72;;
44850;SDS011;30583;48.714;9.386;2023-04-25T05:36:13;5.93;;;2.50;;
44850;SDS011;30583;48.714;9.386;2023-04-25T05:38:38;11.73;;;2.75;;
44850;SDS011;30583;48.714;9.386;2023-04-25T05:41:04;6.32;;;2.70;;
44850;SDS011;30583;48.714;9.386;2023-04-25T05:43:30;5.28;;;2.90;;
44850;SDS011;30583;48.714;9.386;2023-04-25T05:45:55;6.80;;;2.70;;
44850;SDS011;30583;48.714;9.386;2023-04-25T05:48:21;6.68;;;2.78;;
44850;SDS011;30583;48.714;9.386;2023-04-25T05:50:47;4.55;;;2.75;;
44850;SDS011;30583;48.714;9.386;2023-04-25T05:53:12;4.95;;;2.90;;
44850;SDS011;30583;48.714;9.386;2023-04-25T05:55:38;5.53;;;2.75;;
44850;SDS011;30583;48.714;9.386;2023-04-25T05:58:05;5.03;;;2.95;;
44850;SDS011;30583;48.714;9.386;2023-04-25T06:00:31;7.72;;;2.97;;
44850;SDS011;30583;48.714;9.386;2023-04-25T06:02:56;7.70;;;3.00;;
44850;SDS011;30583;48.714;9.386;2023-04-25T06:05:22;7.72;;;4.95;;
44850;SDS011;30583;48.714;9.386;2023-04-25T06:07:48;6.75;;;3.17;;
44850;SDS011;30583;48.714;9.386;2023-04-25T06:10:13;4.43;;;2.78;;
44850;SDS011;30583;48.714;9.386;2023-04-25T06:12:40;7.20;;;3.30;;
44850;SDS011;30583;48.714;9.386;2023-04-25T06:15:05;5.10;;;3.03;;
44850;SDS011;30583;48.714;9.386;2023-04-25T06:17:32;5.63;;;2.97;;
44850;SDS011;30583;48.714;9.386;2023-04-25T06:19:58;5.97;;;3.00;;
44850;SDS011;30583;48.714;9.386;2023-04-25T06:22:23;5.80;;;3.60;;
44850;SDS011;30583;48.714;9.386;2023-04-25T06:24:49;8.93;;;3.50;;
44850;SDS011;30583;48.714;9.386;2023-04-25T06:27:14;4.85;;;2.85;;
44850;SDS011;30583;48.714;9.386;2023-04-25T06:29:40;6.30;;;3.30;;
44850;SDS011;30583;48.714;9.386;2023-04-25T06:32:05;6.68;;;2.92;;
44850;SDS011;30583;48.714;9.386;2023-04-25T06:34:31;5.28;;;3.15;;
44850;SDS011;30583;48.714;9.386;2023-04-25T06:36:57;5.35;;;3.05;;
44850;SDS011;30583;48.714;9.386;2023-04-25T06:39:22;7.45;;;3.17;;
44850;SDS011;30583;48.714;9.386;2023-04-25T06:41:49;8.40;;;3.63;;
44850;SDS011;30583;48.714;9.386;2023-04-25T06:44:15;4.50;;;2.75;;
44850;SDS011;30583;48.714;9.386;2023-04-25T06:46:41;4.85;;;2.80;;
44850;SDS011;30583;48.714;9.386;2023-04-25T06:49:06;5.20;;;3.10;;
44850;SDS011;30583;48.714;9.386;2023-04-25T06:51:32;5.07;;;2.85;;
44850;SDS011;30583;48.714;9.386;2023-04-25T06:53:57;5.88;;;2.47;;
44850;SDS011;30583;48.714;9.386;2023-04-25T06:56:23;5.88;;;2.80;;
44850;SDS011;30583;48.714;9.386;2023-04-25T06:58:49;4.63;;;2.78;;
44850;SDS011;30583;48.714;9.386;2023-04-25T07:01:15;5.75;;;2.95;;
44850;SDS011;30583;48.714;9.386;2023-04-25T07:03:40;6.50;;;3.00;;
44850;SDS011;30583;48.714;9.386;2023-04-25T07:06:06;5.85;;;2.80;;
44850;SDS011;30583;48.714;9.386;2023-04-25T07:08:31;4.45;;;2.58;;
44850;SDS011;30583;48.714;9.386;2023-04-25T07:10:57;5.85;;;2.83;;
44850;SDS011;30583;48.714;9.386;2023-04-25T07:13:23;6.10;;;2.63;;
44850;SDS011;30583;48.714;9.386;2023-04-25T07:15:48;5.40;;;3.17;;
44850;SDS011;30583;48.714;9.386;2023-04-25T07:18:14;4.63;;;2.60;;
44850;SDS011;30583;48.714;9.386;2023-04-25T07:20:40;3.75;;;2.63;;
44850;SDS011;30583;48.714;9.386;2023-04-25T07:23:06;4.30;;;2.60;;
44850;SDS011;30583;48.714;9.386;2023-04-25T07:25:31;4.75;;;3.05;;
44850;SDS011;30583;48.714;9.386;2023-04-25T07:27:57;4.57;;;2.75;;
44850;SDS011;30583;48.714;9.386;2023-04-25T07:30:22;3.83;;;2.40;;
44850;SDS011;30583;48.714;9.386;2023-04-25T07:32:48;4.30;;;2.97;;
44850;SDS011;30583;48.714;9.386;2023-04-25T07:35:15;5.68;;;2.97;;
44850;SDS011;30583;48.714;9.386;2023-04-25T07:37:41;7.30;;;2.58;;
44850;SDS011;30583;48.714;9.386;2023-04-25T07:40:06;5.63;;;2.50;;
44850;SDS011;30583;48.714;9.386;2023-04-25T07:42:34;5.57;;;2.50;;
44850;SDS011;30583;48.714;9.386;2023-04-25T07:44:59;5.38;;;2.50;;
44850;SDS011;30583;48.714;9.386;2023-04-25T07:47:26;5.45;;;2.80;;
44850;SDS011;30583;48.714;9.386;2023-04-25T07:49:51;6.03;;;2.78;;
44850;SDS011;30583;48.714;9.386;2023-04-25T07:52:17;4.28;;;2.72;;
44850;SDS011;30583;48.714;9.386;2023-04-25T07:54:43;4.50;;;2.72;;
44850;SDS011;30583;48.714;9.386;2023-04-25T07:57:08;5.53;;;2.67;;
44850;SDS011;30583;48.714;9.386;2023-04-25T07:59:34;4.45;;;3.00;;
44850;SDS011;30583;48.714;9.386;2023-04-25T08:02:00;5.28;;;2.83;;
44850;SDS011;30583;48.714;9.386;2023-04-25T08:04:26;4.28;;;2.90;;
44850;SDS011;30583;48.714;9.386;2023-04-25T08:06:52;5.32;;;3.05;;
44850;SDS011;30583;48.714;9.386;2023-04-25T08:09:18;5.55;;;2.90;;
44850;SDS011;30583;48.714;9.386;2023-04-25T08:11:44;4.88;;;3.17;;
44850;SDS011;30583;48.714;9.386;2023-04-25T08:14:10;3.67;;;2.63;;
44850;SDS011;30583;48.714;9.386;2023-04-25T08:16:37;6.20;;;3.25;;
44850;SDS011;30583;48.714;9.386;2023-04-25T08:19:02;18.25;;;13.00;;
44850;SDS011;30583;48.714;9.386;2023-04-25T08:21:28;9.70;;;6.75;;
44850;SDS011;30583;48.714;9.386;2023-04-25T08:23:53;5.70;;;3.42;;
44850;SDS011;30583;48.714;9.386;2023-04-25T08:26:19;4.85;;;2.90;;
44850;SDS011;30583;48.714;9.386;2023-04-25T08:28:46;4.57;;;2.95;;
44850;SDS011;30583;48.714;9.386;2023-04-25T08:31:12;5.07;;;3.80;;
44850;SDS011;30583;48.714;9.386;2023-04-25T08:33:37;6.78;;;4.38;;
44850;SDS011;30583;48.714;9.386;2023-04-25T08:36:03;15.18;;;8.32;;
44850;SDS011;30583;48.714;9.386;2023-04-25T08:38:28;7.25;;;4.30;;
44850;SDS011;30583;48.714;9.386;2023-04-25T08:40:54;7.97;;;3.67;;
44850;SDS011;30583;48.714;9.386;2023-04-25T08:43:24;10.80;;;6.50;;
44850;SDS011;30583;48.714;9.386;2023-04-25T08:45:50;7.85;;;4.80;;
44850;SDS011;30583;48.714;9.386;2023-04-25T08:48:18;6.82;;;4.38;;
44850;SDS011;30583;48.714;9.386;2023-04-25T08:53:17;7.85;;;4.35;;
44850;SDS011;30583;48.714;9.386;2023-04-25T08:55:50;6.82;;;4.38;;
44850;SDS011;30583;48.714;9.386;2023-04-25T08:58:17;7.55;;;4.28;;
44850;SDS011;30583;48.714;9.386;2023-04-25T09:00:45;7.00;;;4.50;;
44850;SDS011;30583;48.714;9.386;2023-04-25T09:03:11;8.60;;;4.72;;
44850;SDS011;30583;48.714;9.386;2023-04-25T09:05:37;6.80;;;4.97;;
44850;SDS011;30583;48.714;9.386;2023-04-25T09:08:05;8.70;;;5.25;;
44850;SDS011;30583;48.714;9.386;2023-04-25T09:10:31;6.13;;;4.90;;
44850;SDS011;30583;48.714;9.386;2023-04-25T09:15:29;7.25;;;4.80;;
44850;SDS011;30583;48.714;9.386;2023-04-25T09:17:56;7.82;;;5.18;;
44850;SDS011;30583;48.714;9.386;2023-04-25T09:20:23;7.15;;;5.30;;
44850;SDS011;30583;48.714;9.386;2023-04-25T09:22:49;8.52;;;5.97;;
44850;SDS011;30583;48.714;9.386;2023-04-25T09:25:27;8.77;;;5.70;;
44850;SDS011;30583;48.714;9.386;2023-04-25T09:28:00;9.55;;;5.53;;
44850;SDS011;30583;48.714;9.386;2023-04-25T09:30:29;8.95;;;5.85;;
44850;SDS011;30583;48.714;9.386;2023-04-25T09:32:56;8.10;;;5.30;;
44850;SDS011;30583;48.714;9.386;2023-04-25T09:35:28;8.77;;;6.22;;
44850;SDS011;30583;48.714;9.386;2023-04-25T09:37:54;7.70;;;5.88;;
44850;SDS011;30583;48.714;9.386;2023-04-25T09:40:21;8.50;;;5.95;;
44850;SDS011;30583;48.714;9.386;2023-04-25T09:42:46;8.68;;;5.88;;
44850;SDS011;30583;48.714;9.386;2023-04-25T09:45:12;8.70;;;5.50;;
44850;SDS011;30583;48.714;9.386;2023-04-25T09:47:40;8.73;;;5.40;;
44850;SDS011;30583;48.714;9.386;2023-04-25T09:50:16;8.43;;;5.35;;
44850;SDS011;30583;48.714;9.386;2023-04-25T09:52:43;7.50;;;5.65;;
44850;SDS011;30583;48.714;9.386;2023-04-25T09:55:09;7.53;;;5.50;;
44850;SDS011;30583;48.714;9.386;2023-04-25T09:57:35;9.05;;;5.60;;
44850;SDS011;30583;48.714;9.386;2023-04-25T10:00:04;8.40;;;5.05;;
44850;SDS011;30583;48.714;9.386;2023-04-25T10:02:35;7.35;;;5.25;;
44850;SDS011;30583;48.714;9.386;2023-04-25T10:05:05;7.20;;;5.20;;
44850;SDS011;30583;48.714;9.386;2023-04-25T10:07:31;14.98;;;7.15;;
44850;SDS011;30583;48.714;9.386;2023-04-25T10:10:03;21.92;;;13.57;;
44850;SDS011;30583;48.714;9.386;2023-04-25T10:12:30;10.50;;;6.93;;
44850;SDS011;30583;48.714;9.386;2023-04-25T10:14:57;10.50;;;5.93;;
44850;SDS011;30583;48.714;9.386;2023-04-25T10:17:23;10.63;;;5.43;;
44850;SDS011;30583;48.714;9.386;2023-04-25T10:19:51;9.98;;;5.90;;
44850;SDS011;30583;48.714;9.386;2023-04-25T10:22:20;8.80;;;5.50;;
44850;SDS011;30583;48.714;9.386;2023-04-25T10:24:53;8.15;;;5.80;;
44850;SDS011;30583;48.714;9.386;2023-04-25T10:27:21;8.35;;;5.68;;
44850;SDS011;30583;48.714;9.386;2023-04-25T10:29:59;8.73;;;4.70;;
44850;SDS011;30583;48.714;9.386;2023-04-25T10:32:29;6.38;;;4.55;;
44850;SDS011;30583;48.714;9.386;2023-04-25T10:34:56;24.42;;;17.42;;
44850;SDS011;30583;48.714;9.386;2023-04-25T10:37:21;11.68;;;7.20;;
44850;SDS011;30583;48.714;9.386;2023-04-25T10:39:48;10.15;;;7.20;;
44850;SDS011;30583;48.714;9.386;2023-04-25T10:42:14;9.73;;;5.00;;
44850;SDS011;30583;48.714;9.386;2023-04-25T10:44:40;6.25;;;4.35;;
44850;SDS011;30583;48.714;9.386;2023-04-25T10:47:34;5.25;;;3.55;;
44850;SDS011;30583;48.714;9.386;2023-04-25T10:50:04;6.68;;;3.53;;
44850;SDS011;30583;48.714;9.386;2023-04-25T10:52:33;7.15;;;3.22;;
44850;SDS011;30583;48.714;9.386;2023-04-25T10:54:59;5.78;;;3.20;;
44850;SDS011;30583;48.714;9.386;2023-04-25T10:57:31;4.38;;;2.85;;
44850;SDS011;30583;48.714;9.386;2023-04-25T10:59:59;4.18;;;2.67;;
44850;SDS011;30583;48.714;9.386;2023-04-25T11:02:26;8.80;;;5.30;;
44850;SDS011;30583;48.714;9.386;2023-04-25T11:04:53;9.95;;;5.75;;
44850;SDS011;30583;48.714;9.386;2023-04-25T11:07:23;4.13;;;2.88;;
44850;SDS011;30583;48.714;9.386;2023-04-25T11:09:58;3.28;;;2.60;;
44850;SDS011;30583;48.714;9.386;2023-04-25T11:12:29;1.88;;;1.60;;
44850;SDS011;30583;48.714;9.386;2023-04-25T11:15:05;2.33;;;1.73;;
44850;SDS011;30583;48.714;9.386;2023-04-25T11:17:32;7.88;;;4.50;;
44850;SDS011;30583;48.714;9.386;2023-04-25T11:19:58;3.72;;;1.80;;
44850;SDS011;30583;48.714;9.386;2023-04-25T11:22:24;3.75;;;2.03;;
44850;SDS011;30583;48.714;9.386;2023-04-25T11:24:49;2.75;;;1.50;;
44850;SDS011;30583;48.714;9.386;2023-04-25T11:27:15;3.20;;;1.90;;
44850;SDS011;30583;48.714;9.386;2023-04-25T11:29:41;3.28;;;1.88;;
44850;SDS011;30583;48.714;9.386;2023-04-25T11:32:07;4.47;;;1.60;;
44850;SDS011;30583;48.714;9.386;2023-04-25T11:34:33;2.63;;;1.30;;
44850;SDS011;30583;48.714;9.386;2023-04-25T11:36:59;2.83;;;1.45;;
44850;SDS011;30583;48.714;9.386;2023-04-25T11:39:26;5.75;;;3.30;;
44850;SDS011;30583;48.714;9.386;2023-04-25T11:41:53;4.50;;;1.80;;
44850;SDS011;30583;48.714;9.386;2023-04-25T11:44:19;2.65;;;1.55;;
44850;SDS011;30583;48.714;9.386;2023-04-25T11:46:46;2.58;;;1.50;;
44850;SDS011;30583;48.714;9.386;2023-04-25T11:49:12;1.63;;;1.30;;
44850;SDS011;30583;48.714;9.386;2023-04-25T11:51:39;2.47;;;1.40;;
44850;SDS011;30583;48.714;9.386;2023-04-25T11:54:09;3.03;;;1.60;;
44850;SDS011;30583;48.714;9.386;2023-04-25T11:56:35;2.30;;;1.40;;
44850;SDS011;30583;48.714;9.386;2023-04-25T11:59:01;1.77;;;1.20;;
44850;SDS011;30583;48.714;9.386;2023-04-25T12:01:32;1.65;;;1.20;;
44850;SDS011;30583;48.714;9.386;2023-04-25T12:04:10;3.72;;;1.80;;
44850;SDS011;30583;48.714;9.386;2023-04-25T12:06:40;4.20;;;1.27;;
44850;SDS011;30583;48.714;9.386;2023-04-25T12:09:10;4.20;;;2.05;;
44850;SDS011;30583;48.714;9.386;2023-04-25T12:11:44;3.28;;;1.60;;
44850;SDS011;30583;48.714;9.386;2023-04-25T12:14:12;2.38;;;1.33;;
44850;SDS011;30583;48.714;9.386;2023-04-25T12:16:59;1.70;;;1.17;;
44850;SDS011;30583;48.714;9.386;2023-04-25T12:19:26;2.10;;;1.10;;
44850;SDS011;30583;48.714;9.386;2023-04-25T12:21:58;1.75;;;1.20;;
44850;SDS011;30583;48.714;9.386;2023-04-25T12:24:25;2.60;;;1.10;;
44850;SDS011;30583;48.714;9.386;2023-04-25T12:29:28;2.17;;;1.30;;
44850;SDS011;30583;48.714;9.386;2023-04-25T12:31:55;2.10;;;1.45;;
44850;SDS011;30583;48.714;9.386;2023-04-25T12:34:22;3.28;;;1.60;;
44850;SDS011;30583;48.714;9.386;2023-04-25T12:36:49;2.80;;;1.88;;
44850;SDS011;30583;48.714;9.386;2023-04-25T12:39:15;2.55;;;1.90;;
44850;SDS011;30583;48.714;9.386;2023-04-25T12:41:42;4.32;;;1.98;;
44850;SDS011;30583;48.714;9.386;2023-04-25T12:44:08;3.22;;;1.95;;
44850;SDS011;30583;48.714;9.386;2023-04-25T12:46:34;2.97;;;1.92;;
44850;SDS011;30583;48.714;9.386;2023-04-25T12:49:00;3.15;;;1.98;;
44850;SDS011;30583;48.714;9.386;2023-04-25T12:51:28;3.17;;;1.88;;
44850;SDS011;30583;48.714;9.386;2023-04-25T12:53:54;7.45;;;2.75;;
44850;SDS011;30583;48.714;9.386;2023-04-25T12:56:19;4.40;;;2.35;;
44850;SDS011;30583;48.714;9.386;2023-04-25T12:58:45;4.07;;;2.45;;
44850;SDS011;30583;48.714;9.386;2023-04-25T13:01:12;3.97;;;2.38;;
44850;SDS011;30583;48.714;9.386;2023-04-25T13:03:39;3.15;;;2.17;;
44850;SDS011;30583;48.714;9.386;2023-04-25T13:06:05;8.85;;;5.20;;
44850;SDS011;30583;48.714;9.386;2023-04-25T13:08:31;5.05;;;3.30;;
44850;SDS011;30583;48.714;9.386;2023-04-25T13:10:57;5.13;;;2.55;;
44850;SDS011;30583;48.714;9.386;2023-04-25T13:13:23;4.70;;;2.95;;
44850;SDS011;30583;48.714;9.386;2023-04-25T13:15:48;4.00;;;2.72;;
44850;SDS011;30583;48.714;9.386;2023-04-25T13:18:14;5.00;;;3.00;;
44850;SDS011;30583;48.714;9.386;2023-04-25T13:20:40;6.05;;;3.63;;
44850;SDS011;30583;48.714;9.386;2023-04-25T13:23:06;5.05;;;3.30;;
44850;SDS011;30583;48.714;9.386;2023-04-25T13:25:31;5.43;;;3.50;;
44850;SDS011;30583;48.714;9.386;2023-04-25T13:27:57;5.90;;;3.70;;
44850;SDS011;30583;48.714;9.386;2023-04-25T13:30:22;6.60;;;4.47;;
44850;SDS011;30583;48.714;9.386;2023-04-25T13:32:48;5.25;;;3.85;;
44850;SDS011;30583;48.714;9.386;2023-04-25T13:35:14;6.28;;;3.80;;
44850;SDS011;30583;48.714;9.386;2023-04-25T13:37:40;6.80;;;4.22;;
44850;SDS011;30583;48.714;9.386;2023-04-25T13:40:09;6.03;;;4.47;;
44850;SDS011;30583;48.714;9.386;2023-04-25T13:42:36;6.72;;;4.13;;
44850;SDS011;30583;48.714;9.386;2023-04-25T13:45:02;6.75;;;4.07;;
44850;SDS011;30583;48.714;9.386;2023-04-25T13:47:29;6.43;;;3.97;;
44850;SDS011;30583;48.714;9.386;2023-04-25T13:49:55;5.78;;;4.60;;
44850;SDS011;30583;48.714;9.386;2023-04-25T13:52:21;6.55;;;4.20;;
44850;SDS011;30583;48.714;9.386;2023-04-25T13:54:49;7.45;;;4.25;;
44850;SDS011;30583;48.714;9.386;2023-04-25T13:57:14;5.65;;;4.05;;
44850;SDS011;30583;48.714;9.386;2023-04-25T13:59:40;7.90;;;5.07;;
44850;SDS011;30583;48.714;9.386;2023-04-25T14:02:06;6.28;;;4.38;;
44850;SDS011;30583;48.714;9.386;2023-04-25T14:04:32;7.57;;;5.07;;
44850;SDS011;30583;48.714;9.386;2023-04-25T14:06:58;7.25;;;4.88;;
44850;SDS011;30583;48.714;9.386;2023-04-25T14:09:23;7.95;;;4.70;;
44850;SDS011;30583;48.714;9.386;2023-04-25T14:11:53;7.47;;;4.63;;
44850;SDS011;30583;48.714;9.386;2023-04-25T14:14:20;7.85;;;4.28;;
44850;SDS011;30583;48.714;9.386;2023-04-25T14:16:46;6.57;;;4.55;;
44850;SDS011;30583;48.714;9.386;2023-04-25T14:19:16;7.25;;;4.60;;
44850;SDS011;30583;48.714;9.386;2023-04-25T14:21:42;7.28;;;5.18;;
44850;SDS011;30583;48.714;9.386;2023-04-25T14:24:08;9.02;;;6.28;;
44850;SDS011;30583;48.714;9.386;2023-04-25T14:26:35;9.45;;;4.70;;
44850;SDS011;30583;48.714;9.386;2023-04-25T14:29:02;8.32;;;4.95;;
44850;SDS011;30583;48.714;9.386;2023-04-25T14:31:29;9.38;;;5.20;;
44850;SDS011;30583;48.714;9.386;2023-04-25T14:33:54;8.20;;;4.82;;
44850;SDS011;30583;48.714;9.386;2023-04-25T14:36:20;7.75;;;5.40;;
44850;SDS011;30583;48.714;9.386;2023-04-25T14:38:46;8.27;;;4.78;;
44850;SDS011;30583;48.714;9.386;2023-04-25T14:41:11;8.75;;;4.63;;
44850;SDS011;30583;48.714;9.386;2023-04-25T14:43:37;7.85;;;4.80;;
44850;SDS011;30583;48.714;9.386;2023-04-25T14:46:04;9.77;;;5.80;;
44850;SDS011;30583;48.714;9.386;2023-04-25T14:48:31;10.02;;;6.13;;
44850;SDS011;30583;48.714;9.386;2023-04-25T14:50:57;8.00;;;5.03;;
44850;SDS011;30583;48.714;9.386;2023-04-25T14:53:22;5.60;;;4.32;;